Time;durP1;ratioP1;P1;durP2;ratioP2;P2;SDS_P1;SDS_P2;PMS_P1;PMS_P2;Temp;Humidity;BMP_temperature;BMP_pressure;BME280_temperature;BME280_humidity;BME280_pressure;Samples;Min_cycle;Max_cycle;Signal;HPM_P1;HPM_P2
2023/11/11 00:01:09;;;;;;;9.25;7.03;;;;;;;10.40;76.49;97980.59;5056137;28;20398;-85
2023/11/11 00:03:35;;;;;;;8.55;7.32;;;;;;;10.40;76.36;97987.69;5034103;28;20183;-80
2023/11/11 00:06:02;;;;;;;8.00;6.38;;;;;;;10.38;76.32;97984.34;5032907;28;20505;-82
2023/11/11 00:08:30;;;;;;;7.25;6.00;;;;;;;10.37;76.24;97983.50;5032726;28;20053;-85
2023/11/11 00:10:57;;;;;;;7.15;5.68;;;;;;;10.34;76.26;97982.94;5042589;28;20074;-83
2023/11/11 00:13:23;;;;;;;7.05;4.63;;;;;;;10.33;76.17;97989.16;5053140;28;20516;-82
2023/11/11 00:15:50;;;;;;;5.20;4.60;;;;;;;10.30;76.23;97985.84;5053929;28;20141;-85
2023/11/11 00:18:18;;;;;;;5.20;3.97;;;;;;;10.28;76.14;97985.13;5053859;28;20131;-82
2023/11/11 00:20:47;;;;;;;5.80;4.57;;;;;;;10.28;76.21;97986.94;5053463;28;20501;-82
2023/11/11 00:23:14;;;;;;;5.18;3.97;;;;;;;10.24;76.28;97981.06;5062741;28;20049;-83
2023/11/11 00:25:46;;;;;;;7.10;5.28;;;;;;;10.21;75.88;97983.97;5051059;28;20114;-82
2023/11/11 00:28:14;;;;;;;7.13;4.63;;;;;;;10.22;76.79;97985.66;5052393;28;20049;-82
2023/11/11 00:30:45;;;;;;;7.28;5.75;;;;;;;10.22;76.48;97982.16;5053400;28;20462;-82
2023/11/11 00:33:12;;;;;;;7.68;5.43;;;;;;;10.21;76.49;97977.88;5053448;28;20757;-82
2023/11/11 00:35:39;;;;;;;6.88;5.32;;;;;;;10.21;76.50;97985.78;5053452;28;20052;-82
2023/11/11 00:38:09;;;;;;;7.05;5.47;;;;;;;10.20;76.76;97982.28;5053386;28;20053;-82
2023/11/11 00:40:40;;;;;;;6.10;5.45;;;;;;;10.20;76.70;97982.28;5051962;28;20041;-85
2023/11/11 00:43:08;;;;;;;8.45;5.95;;;;;;;10.20;76.65;97987.56;5052171;28;20049;-83
2023/11/11 00:45:35;;;;;;;8.65;6.13;;;;;;;10.20;76.68;97990.19;5052796;28;20048;-84
2023/11/11 00:48:01;;;;;;;9.13;6.55;;;;;;;10.20;76.60;97992.81;5052420;28;20081;-82
2023/11/11 00:50:29;;;;;;;8.57;6.63;;;;;;;10.21;76.45;97988.41;5053318;28;20052;-81
2023/11/11 00:52:55;;;;;;;9.43;7.25;;;;;;;10.21;76.57;97988.41;5053228;28;20550;-82
2023/11/11 00:55:22;;;;;;;11.88;8.63;;;;;;;10.19;76.37;97987.69;5052629;28;20059;-82
2023/11/11 00:57:49;;;;;;;11.13;8.38;;;;;;;10.16;76.54;97991.41;5052691;28;20049;-82
2023/11/11 01:00:19;;;;;;;11.18;8.75;;;;;;;10.14;76.53;97993.34;5051834;28;20543;-82
2023/11/11 01:02:46;;;;;;;12.57;8.65;;;;;;;10.14;76.37;97993.34;5053056;28;20049;-82
2023/11/11 01:05:13;;;;;;;12.63;8.68;;;;;;;10.13;76.58;98002.19;5052583;28;20123;-82
2023/11/11 01:07:39;;;;;;;13.73;9.80;;;;;;;10.11;76.43;97999.69;5051724;28;20136;-81
2023/11/11 01:10:08;;;;;;;12.98;9.52;;;;;;;10.10;76.69;97997.19;5052881;28;20048;-83
2023/11/11 01:12:35;;;;;;;18.08;9.95;;;;;;;10.09;76.69;98000.78;5051741;28;20481;-81
2023/11/11 01:15:08;;;;;;;15.57;10.40;;;;;;;10.07;76.81;97997.44;5052703;28;20052;-83
2023/11/11 01:17:38;;;;;;;14.43;10.00;;;;;;;10.07;77.00;97995.66;5052629;28;20041;-82
2023/11/11 01:20:05;;;;;;;16.65;11.02;;;;;;;10.08;77.14;97999.09;5051424;28;20139;-82
2023/11/11 01:22:33;;;;;;;15.05;11.25;;;;;;;10.08;77.11;98005.19;5051337;28;20106;-83
2023/11/11 01:24:59;;;;;;;17.52;12.30;;;;;;;10.08;77.40;97999.09;5052716;28;20276;-85
2023/11/11 01:27:27;;;;;;;17.30;11.93;;;;;;;10.08;77.18;98005.19;5052033;28;20076;-83
2023/11/11 01:29:54;;;;;;;19.60;11.18;;;;;;;10.10;77.15;98007.69;5051213;28;20052;-83
2023/11/11 01:32:22;;;;;;;17.70;12.45;;;;;;;10.10;77.14;98007.69;5051067;28;20386;-81
2023/11/11 01:34:49;;;;;;;16.92;11.93;;;;;;;10.10;76.99;98008.53;5052298;28;20048;-84
2023/11/11 01:37:16;;;;;;;18.40;11.63;;;;;;;10.09;77.19;98009.50;5052120;28;20045;-81
2023/11/11 01:39:42;;;;;;;19.98;12.93;;;;;;;10.10;77.20;98012.97;5051433;28;20501;-83
2023/11/11 01:42:09;;;;;;;20.52;14.23;;;;;;;10.10;77.25;98019.03;5052171;28;20049;-83
2023/11/11 01:44:35;;;;;;;16.60;12.43;;;;;;;10.09;77.34;98011.31;5052263;28;20401;-83
2023/11/11 01:47:06;;;;;;;19.70;13.85;;;;;;;10.07;76.71;98016.69;5051745;28;20135;-83
2023/11/11 01:49:33;;;;;;;21.50;14.75;;;;;;;10.07;76.91;98018.47;5052204;28;20386;-82
2023/11/11 01:52:01;;;;;;;19.45;13.20;;;;;;;10.06;77.17;98027.31;5051964;28;20053;-82
2023/11/11 01:54:29;;;;;;;22.88;15.23;;;;;;;10.06;77.18;98022.91;5050913;28;20671;-82
2023/11/11 01:56:56;;;;;;;20.58;14.27;;;;;;;10.04;77.11;98024.81;5051830;28;20576;-82
2023/11/11 01:59:26;;;;;;;20.58;14.00;;;;;;;10.04;76.96;98032.69;5051073;28;20132;-83
2023/11/11 02:01:53;;;;;;;21.10;14.60;;;;;;;10.04;77.24;98027.44;5051463;28;20084;-81
2023/11/11 02:04:20;;;;;;;21.02;15.20;;;;;;;10.03;77.15;98039.75;5051661;28;20053;-84
2023/11/11 02:06:49;;;;;;;23.58;15.27;;;;;;;10.03;77.12;98034.47;5051598;28;20128;-84
2023/11/11 02:09:18;;;;;;;20.65;15.25;;;;;;;10.01;77.13;98041.69;5051309;28;20080;-81
2023/11/11 02:11:51;;;;;;;19.52;14.27;;;;;;;10.02;77.18;98032.00;5050428;28;20553;-82
2023/11/11 02:14:20;;;;;;;21.10;14.30;;;;;;;10.01;76.97;98027.69;5051475;28;20045;-83
2023/11/11 02:16:47;;;;;;;22.00;14.63;;;;;;;10.00;77.12;98026.88;5050125;28;20102;-84
2023/11/11 02:19:13;;;;;;;22.85;13.93;;;;;;;10.00;77.00;98020.78;5049829;28;20111;-83
2023/11/11 02:21:41;;;;;;;20.38;14.02;;;;;;;9.98;77.14;98025.34;5050165;28;20052;-82
2023/11/11 02:24:10;;;;;;;20.58;13.43;;;;;;;9.97;77.08;98029.75;5051620;28;20049;-82
2023/11/11 02:26:37;;;;;;;16.30;12.63;;;;;;;9.97;77.01;98032.38;5050497;28;20202;-82
2023/11/11 02:29:03;;;;;;;20.00;13.80;;;;;;;9.95;77.02;98030.84;5049637;28;20776;-84
2023/11/11 02:31:30;;;;;;;20.05;13.82;;;;;;;9.95;77.09;98041.34;5051057;28;20470;-83
2023/11/11 02:33:56;;;;;;;17.02;12.75;;;;;;;9.93;77.24;98032.75;5051350;28;20061;-82
2023/11/11 02:36:23;;;;;;;16.83;12.85;;;;;;;9.92;77.17;98031.94;5050295;28;20052;-82
2023/11/11 02:38:49;;;;;;;18.55;13.40;;;;;;;9.90;77.31;98032.06;5050904;28;20103;-80
2023/11/11 02:41:16;;;;;;;21.17;15.38;;;;;;;9.90;77.26;98031.19;5049554;28;20049;-82
2023/11/11 02:43:42;;;;;;;18.02;13.95;;;;;;;9.89;77.30;98037.44;5051453;28;20052;-82
2023/11/11 02:46:09;;;;;;;18.10;14.05;;;;;;;9.88;77.37;98041.03;5050559;28;20095;-82
2023/11/11 02:48:36;;;;;;;19.48;13.27;;;;;;;9.88;77.22;98043.66;5050946;28;20111;-83
2023/11/11 02:51:03;;;;;;;21.55;13.63;;;;;;;9.87;77.13;98039.34;5050940;28;20049;-82
2023/11/11 02:53:29;;;;;;;19.90;13.15;;;;;;;9.87;77.49;98034.09;5051318;28;20091;-82
2023/11/11 02:55:56;;;;;;;18.90;12.45;;;;;;;9.86;77.37;98033.25;5050661;28;20059;-81
2023/11/11 02:58:22;;;;;;;14.73;12.15;;;;;;;9.87;77.58;98040.19;5050803;28;20140;-84
2023/11/11 03:00:50;;;;;;;15.55;12.00;;;;;;;9.86;77.37;98035.03;5050492;28;20053;-82
2023/11/11 03:03:16;;;;;;;15.52;11.45;;;;;;;9.87;77.32;98042.00;5050930;28;20139;-82
2023/11/11 03:05:43;;;;;;;18.30;12.48;;;;;;;9.87;76.92;98034.91;5050600;28;20041;-82
2023/11/11 03:08:10;;;;;;;16.30;11.75;;;;;;;9.86;76.89;98040.28;5049294;28;20671;-81
2023/11/11 03:10:37;;;;;;;15.75;11.57;;;;;;;9.85;77.02;98051.78;5050207;28;20084;-83
2023/11/11 03:13:03;;;;;;;19.77;12.55;;;;;;;9.84;77.11;98055.38;5051112;28;20505;-83
2023/11/11 03:15:30;;;;;;;17.65;12.05;;;;;;;9.83;77.20;98064.22;5051054;28;20076;-84
2023/11/11 03:17:56;;;;;;;18.88;12.05;;;;;;;9.82;77.23;98058.13;5050258;28;20079;-83
2023/11/11 03:20:23;;;;;;;21.02;12.80;;;;;;;9.81;76.99;98068.75;5050667;28;20063;-82
2023/11/11 03:22:49;;;;;;;20.75;12.25;;;;;;;9.79;77.09;98068.88;5049233;28;20048;-81
2023/11/11 03:25:16;;;;;;;16.38;12.48;;;;;;;9.78;77.03;98083.81;5050549;28;20061;-82
2023/11/11 03:27:43;;;;;;;18.27;13.70;;;;;;;9.76;77.31;98079.66;5050312;28;20079;-82
2023/11/11 03:30:10;;;;;;;16.35;12.63;;;;;;;9.75;77.31;98088.47;5050685;28;20053;-83
2023/11/11 03:32:36;;;;;;;17.55;13.50;;;;;;;9.73;77.02;98091.25;5048937;28;20130;-82
2023/11/11 03:35:04;;;;;;;19.33;12.95;;;;;;;9.73;77.13;98093.88;5050511;28;20048;-82
2023/11/11 03:37:30;;;;;;;15.15;11.55;;;;;;;9.70;77.14;98091.47;5049954;28;20087;-82
2023/11/11 03:39:57;;;;;;;17.48;10.95;;;;;;;9.69;77.18;98097.69;5050657;28;20044;-82
2023/11/11 03:42:23;;;;;;;14.13;11.23;;;;;;;9.67;76.97;98096.97;5050505;28;20166;-80
2023/11/11 03:44:50;;;;;;;13.68;10.68;;;;;;;9.65;76.80;98099.72;5050592;28;20053;-82
2023/11/11 03:47:17;;;;;;;14.98;10.98;;;;;;;9.63;76.78;98099.03;5050243;28;20068;-81
2023/11/11 03:49:43;;;;;;;14.45;10.82;;;;;;;9.61;76.82;98102.75;5050224;28;20053;-81
2023/11/11 03:52:10;;;;;;;16.50;10.15;;;;;;;9.57;76.75;98110.00;5048825;28;20509;-84
2023/11/11 03:54:38;;;;;;;15.05;10.30;;;;;;;9.54;76.54;98104.16;5049364;28;20386;-83
2023/11/11 03:57:05;;;;;;;14.25;9.75;;;;;;;9.50;76.71;98109.66;5050579;28;20060;-83
2023/11/11 03:59:34;;;;;;;14.35;9.25;;;;;;;9.47;76.69;98107.28;5048783;28;20106;-82
2023/11/11 04:02:00;;;;;;;14.45;9.00;;;;;;;9.45;76.66;98110.97;5050016;28;20128;-83
2023/11/11 04:04:29;;;;;;;12.00;8.48;;;;;;;9.43;76.74;98115.53;5049127;28;20053;-84
2023/11/11 04:06:55;;;;;;;12.52;8.48;;;;;;;9.40;76.66;98108.72;5050202;28;20115;-81
2023/11/11 04:09:22;;;;;;;14.85;9.30;;;;;;;9.37;76.59;98120.31;5050180;28;20049;-82
2023/11/11 04:11:49;;;;;;;12.63;8.57;;;;;;;9.35;76.69;98118.75;5050159;28;20045;-84
2023/11/11 04:14:17;;;;;;;17.25;9.27;;;;;;;9.33;76.80;98115.41;5049001;28;20061;-82
2023/11/11 04:16:44;;;;;;;12.75;8.63;;;;;;;9.31;76.55;98122.59;5048878;28;20095;-82
2023/11/11 04:19:11;;;;;;;12.88;8.10;;;;;;;9.28;76.38;98122.81;5048693;28;20049;-83
2023/11/11 04:21:38;;;;;;;13.13;8.18;;;;;;;9.24;76.37;98120.41;5048707;28;20049;-82
2023/11/11 04:24:05;;;;;;;13.43;8.02;;;;;;;9.21;76.35;98130.34;5052576;28;20142;-84
2023/11/11 04:26:31;;;;;;;13.05;8.10;;;;;;;9.17;76.39;98137.63;5052857;28;20148;-84
2023/11/11 04:28:59;;;;;;;12.27;8.18;;;;;;;9.15;76.15;98138.69;5052861;28;20536;-81
2023/11/11 04:31:27;;;;;;;10.93;7.47;;;;;;;9.11;76.17;98145.97;5053477;28;20057;-82
2023/11/11 04:33:53;;;;;;;14.10;7.47;;;;;;;9.08;76.18;98152.28;5051881;28;20056;-81
2023/11/11 04:36:21;;;;;;;12.27;7.35;;;;;;;9.05;76.49;98154.31;5069195;28;20056;-82
2023/11/11 04:38:49;;;;;;;8.98;6.82;;;;;;;9.01;76.19;98153.69;5052051;28;20053;-83
2023/11/11 04:41:17;;;;;;;12.93;7.32;;;;;;;8.98;76.22;98162.63;5052836;28;20087;-83
2023/11/11 04:43:44;;;;;;;14.25;7.50;;;;;;;8.94;76.26;98171.69;5053347;28;20136;-83
2023/11/11 04:46:11;;;;;;;9.43;6.97;;;;;;;8.91;76.26;98163.22;5053425;28;20052;-82
2023/11/11 04:48:37;;;;;;;15.77;7.50;;;;;;;8.86;76.19;98169.66;5053351;28;20052;-84
2023/11/11 04:51:05;;;;;;;11.00;7.07;;;;;;;8.82;76.29;98168.22;5052607;28;20057;-81
2023/11/11 04:53:31;;;;;;;10.02;6.50;;;;;;;8.79;76.18;98181.56;5052254;28;20100;-83
2023/11/11 04:55:58;;;;;;;12.68;7.47;;;;;;;8.77;75.90;98182.63;5053310;28;20063;-82
2023/11/11 04:58:25;;;;;;;9.68;7.20;;;;;;;8.71;75.95;98182.16;5053031;28;20052;-83
2023/11/11 05:00:51;;;;;;;9.35;6.47;;;;;;;8.66;76.00;98181.66;5052426;28;20041;-83
2023/11/11 05:03:19;;;;;;;9.00;6.80;;;;;;;8.63;75.93;98189.75;5052952;28;20055;-82
2023/11/11 05:05:46;;;;;;;11.77;6.22;;;;;;;8.59;76.05;98183.06;5051726;28;20124;-82
2023/11/11 05:08:13;;;;;;;9.20;6.25;;;;;;;8.57;76.15;98184.97;5051621;28;20081;-81
2023/11/11 05:10:39;;;;;;;8.95;6.18;;;;;;;8.53;76.01;98186.16;5052335;28;20094;-82
2023/11/11 05:13:08;;;;;;;8.73;6.18;;;;;;;8.49;76.04;98190.75;5052127;28;20482;-83
2023/11/11 05:15:47;;;;;;;9.82;6.10;;;;;;;8.43;75.82;98189.44;5052540;28;20055;-84
2023/11/11 05:18:14;;;;;;;9.48;6.70;;;;;;;8.42;76.20;98195.63;5051206;28;20045;-82
2023/11/11 05:20:41;;;;;;;11.05;6.68;;;;;;;8.39;76.05;98198.47;5052410;28;20195;-81
2023/11/11 05:23:09;;;;;;;10.73;6.75;;;;;;;8.37;76.23;98199.53;5052516;28;20111;-83
2023/11/11 05:25:36;;;;;;;12.32;5.90;;;;;;;8.34;76.21;98203.22;5052622;28;20536;-82
2023/11/11 05:28:03;;;;;;;8.25;6.55;;;;;;;8.31;76.33;98213.91;5051102;28;20056;-82
2023/11/11 05:30:29;;;;;;;8.98;6.15;;;;;;;8.28;76.46;98214.13;5052514;28;20552;-82
2023/11/11 05:32:56;;;;;;;9.18;6.70;;;;;;;8.26;76.23;98222.09;5050699;28;20409;-84
2023/11/11 05:35:23;;;;;;;8.70;6.22;;;;;;;8.24;76.35;98224.00;5052522;28;20053;-82
2023/11/11 05:37:49;;;;;;;9.93;6.70;;;;;;;8.23;76.42;98226.75;5050780;28;20464;-83
2023/11/11 05:40:18;;;;;;;11.02;6.65;;;;;;;8.19;76.39;98232.19;5051954;28;20091;-82
2023/11/11 05:42:48;;;;;;;10.13;6.65;;;;;;;8.18;76.78;98243.63;5050842;28;20088;-82
2023/11/11 05:45:17;;;;;;;12.02;7.22;;;;;;;8.17;77.18;98248.97;5052248;28;20512;-82
2023/11/11 05:47:44;;;;;;;11.27;7.35;;;;;;;8.16;77.27;98250.78;5050854;28;20056;-82
2023/11/11 05:50:12;;;;;;;13.80;7.05;;;;;;;8.17;77.57;98247.22;5052008;28;20099;-82
2023/11/11 05:52:38;;;;;;;11.57;7.18;;;;;;;8.17;77.48;98255.06;5051772;28;20068;-83
2023/11/11 05:55:08;;;;;;;12.07;7.38;;;;;;;8.18;77.24;98261.97;5051942;28;20060;-83
2023/11/11 05:57:38;;;;;;;12.43;7.28;;;;;;;8.19;77.66;98261.03;5052091;28;20135;-83
2023/11/11 06:00:11;;;;;;;12.18;7.32;;;;;;;8.21;77.26;98271.41;5051682;28;20041;-82
2023/11/11 06:02:38;;;;;;;8.13;6.10;;;;;;;8.21;77.56;98261.75;5051419;28;20654;-81
2023/11/11 06:05:05;;;;;;;11.75;6.30;;;;;;;8.21;77.16;98271.41;5051790;28;20286;-84
2023/11/11 06:07:32;;;;;;;11.88;7.35;;;;;;;8.20;77.05;98273.19;5050391;28;20049;-83
2023/11/11 06:09:58;;;;;;;9.68;6.60;;;;;;;8.19;77.35;98268.88;5051600;28;20055;-82
2023/11/11 06:12:25;;;;;;;8.25;6.30;;;;;;;8.20;77.15;98272.34;5051563;28;20093;-83
2023/11/11 06:14:52;;;;;;;9.38;6.10;;;;;;;8.20;77.03;98275.81;5050466;28;20053;-84
2023/11/11 06:17:19;;;;;;;8.05;5.93;;;;;;;8.19;77.14;98271.50;5050314;28;20048;-83
2023/11/11 06:19:45;;;;;;;16.08;6.38;;;;;;;8.18;76.57;98277.69;5050138;28;20469;-82
2023/11/11 06:22:12;;;;;;;10.30;6.32;;;;;;;8.18;76.81;98276.84;5051041;28;20504;-82
2023/11/11 06:24:39;;;;;;;8.57;5.90;;;;;;;8.16;76.79;98278.75;5051604;28;20045;-84
2023/11/11 06:27:08;;;;;;;10.77;5.80;;;;;;;8.15;76.57;98291.00;5051633;28;20048;-82
2023/11/11 06:29:35;;;;;;;10.02;5.93;;;;;;;8.13;76.52;98287.69;5050820;28;20061;-82
2023/11/11 06:32:02;;;;;;;8.55;6.35;;;;;;;8.12;76.37;98288.63;5046949;28;20081;-82
2023/11/11 06:34:28;;;;;;;11.05;5.72;;;;;;;8.11;76.30;98293.97;5051043;28;20045;-83
2023/11/11 06:36:55;;;;;;;9.52;5.88;;;;;;;8.08;76.63;98287.19;5049853;28;20118;-84
2023/11/11 06:39:21;;;;;;;9.55;5.35;;;;;;;8.07;76.63;98291.56;5050921;28;20124;-83
2023/11/11 06:41:49;;;;;;;9.85;6.45;;;;;;;8.05;77.14;98297.88;5049529;28;20063;-82
2023/11/11 06:44:16;;;;;;;11.27;6.60;;;;;;;8.05;77.12;98287.38;5066555;28;20057;-82
2023/11/11 06:46:42;;;;;;;8.95;5.55;;;;;;;8.06;77.25;98299.53;5049686;28;20124;-82
2023/11/11 06:49:09;;;;;;;7.10;5.97;;;;;;;8.06;77.16;98300.38;5049763;28;20048;-82
2023/11/11 06:51:35;;;;;;;9.80;5.95;;;;;;;8.09;77.10;98304.56;5050154;28;20220;-83
2023/11/11 06:54:04;;;;;;;10.48;6.32;;;;;;;8.10;77.29;98308.84;5050976;28;20099;-82
2023/11/11 06:56:31;;;;;;;9.15;5.85;;;;;;;8.12;77.31;98303.50;5049930;28;20068;-82
2023/11/11 06:58:57;;;;;;;12.07;6.72;;;;;;;8.13;77.40;98316.50;5050869;28;20053;-82
2023/11/11 07:01:24;;;;;;;13.27;5.53;;;;;;;8.14;77.42;98318.19;5050320;28;20493;-79
2023/11/11 07:03:51;;;;;;;9.05;5.25;;;;;;;8.15;77.41;98314.59;5050907;28;20053;-82
2023/11/11 07:06:22;;;;;;;9.10;5.93;;;;;;;8.16;77.12;98323.31;5049800;28;20091;-82
2023/11/11 07:08:50;;;;;;;9.23;6.00;;;;;;;8.17;77.03;98332.84;5049906;28;20140;-82
2023/11/11 07:11:18;;;;;;;11.02;5.45;;;;;;;8.18;77.13;98334.53;5048975;28;20076;-82
2023/11/11 07:13:46;;;;;;;9.88;5.28;;;;;;;8.18;77.48;98330.13;5049695;28;20528;-83
2023/11/11 07:16:17;;;;;;;9.82;5.68;;;;;;;8.17;76.87;98338.94;5049471;28;20057;-82
2023/11/11 07:18:45;;;;;;;11.80;5.50;;;;;;;8.19;76.99;98333.59;5049411;28;20136;-82
2023/11/11 07:21:19;;;;;;;8.73;5.30;;;;;;;8.16;76.56;98337.28;5050260;28;20060;-82
2023/11/11 07:23:46;;;;;;;11.13;4.75;;;;;;;8.19;76.46;98344.09;5030956;28;20499;-82
2023/11/11 07:26:15;;;;;;;10.32;4.20;;;;;;;8.17;76.53;98346.81;5029528;28;20053;-81
2023/11/11 07:28:45;;;;;;;8.68;4.25;;;;;;;8.15;76.45;98353.91;5029444;28;20053;-82
2023/11/11 07:31:13;;;;;;;11.65;4.13;;;;;;;8.14;76.51;98354.03;5036540;28;20048;-82
2023/11/11 07:33:44;;;;;;;5.40;4.28;;;;;;;8.11;76.79;98349.84;5050750;28;20061;-83
2023/11/11 07:36:11;;;;;;;7.78;4.25;;;;;;;8.12;76.95;98351.53;5050685;28;20124;-83
2023/11/11 07:38:39;;;;;;;9.80;3.55;;;;;;;8.12;77.86;98355.94;5050722;28;20543;-83
2023/11/11 07:41:07;;;;;;;5.43;3.45;;;;;;;8.14;77.90;98362.75;5050307;28;20119;-83
2023/11/11 07:43:35;;;;;;;8.45;3.70;;;;;;;8.17;78.05;98365.16;5050359;28;20056;-82
2023/11/11 07:46:06;;;;;;;6.45;4.10;;;;;;;8.20;78.02;98359.72;5050820;28;20409;-83
2023/11/11 07:48:33;;;;;;;4.93;3.13;;;;;;;8.26;78.42;98365.47;5049459;28;20118;-82
2023/11/11 07:51:05;;;;;;;6.82;3.08;;;;;;;8.30;78.48;98369.53;5050369;28;20140;-82
2023/11/11 07:53:32;;;;;;;4.78;2.88;;;;;;;8.33;78.47;98378.03;5050495;28;20137;-82
2023/11/11 07:56:01;;;;;;;7.45;2.88;;;;;;;8.38;78.09;98377.72;5049871;28;20136;-83
2023/11/11 07:58:28;;;;;;;7.85;2.70;;;;;;;8.42;78.06;98381.78;5068468;28;20603;-82
2023/11/11 08:00:58;;;;;;;4.18;3.08;;;;;;;8.46;78.01;98382.41;5046469;28;20132;-80
2023/11/11 08:03:24;;;;;;;3.45;2.15;;;;;;;8.47;77.85;98382.31;5053605;28;20071;-78
2023/11/11 08:05:51;;;;;;;8.05;2.45;;;;;;;8.52;78.64;98383.78;5054068;28;20081;-80
2023/11/11 08:08:18;;;;;;;4.43;2.25;;;;;;;8.58;79.33;98378.09;5053915;28;20049;-79
2023/11/11 08:10:45;;;;;;;8.32;2.65;;;;;;;8.65;79.63;98379.34;5053362;28;20587;-78
2023/11/11 08:13:12;;;;;;;4.55;2.25;;;;;;;8.73;79.64;98387.50;5053798;28;20463;-81
2023/11/11 08:15:38;;;;;;;7.53;2.15;;;;;;;8.83;79.77;98378.97;5054029;28;20466;-80
2023/11/11 08:18:05;;;;;;;5.60;2.30;;;;;;;8.93;79.80;98387.84;5053614;28;20525;-81
2023/11/11 08:20:32;;;;;;;7.75;2.33;;;;;;;9.01;79.46;98384.66;5053697;28;20052;-81
2023/11/11 08:22:58;;;;;;;4.95;1.80;;;;;;;9.09;79.48;98387.56;5068918;28;20102;-81
2023/11/11 08:25:25;;;;;;;3.95;1.88;;;;;;;9.18;78.87;98396.56;5054033;28;20080;-81
2023/11/11 08:27:51;;;;;;;5.32;2.03;;;;;;;9.24;78.52;98392.66;5060541;28;20098;-81
2023/11/11 08:30:18;;;;;;;2.38;1.52;;;;;;;9.29;78.21;98405.44;5052265;28;20084;-82
2023/11/11 08:32:45;;;;;;;2.60;1.30;;;;;;;9.33;77.94;98406.88;5053326;28;20448;-81
2023/11/11 08:35:15;;;;;;;3.78;1.30;;;;;;;9.36;78.00;98399.63;5052332;28;20542;-81
2023/11/11 08:37:45;;;;;;;3.78;1.50;;;;;;;9.38;77.60;98405.59;5093654;22;20060;-74
2023/11/11 08:40:13;;;;;;;6.15;1.88;;;;;;;9.41;77.41;98399.28;5033975;28;20053;-77
2023/11/11 08:42:40;;;;;;;1.88;1.00;;;;;;;9.42;77.25;98405.38;5032893;28;20132;-76
2023/11/11 08:45:09;;;;;;;3.13;1.10;;;;;;;9.45;77.23;98405.97;5033255;28;20068;-73
2023/11/11 08:47:37;;;;;;;6.55;1.10;;;;;;;9.46;77.37;98405.03;5033290;28;20041;-73
2023/11/11 08:50:09;;;;;;;2.90;1.27;;;;;;;9.48;77.40;98411.00;5033035;28;20075;-73
2023/11/11 08:52:41;;;;;;;2.30;1.30;;;;;;;9.52;77.64;98403.72;5033299;28;20053;-73
2023/11/11 08:55:09;;;;;;;1.67;1.00;;;;;;;9.55;77.38;98413.19;5032580;28;20049;-74
2023/11/11 08:57:36;;;;;;;5.00;1.40;;;;;;;9.57;77.40;98416.53;5013328;28;20050;-77
2023/11/11 09:00:09;;;;;;;2.03;0.93;;;;;;;9.58;76.47;98419.06;5026962;28;20045;-74
2023/11/11 09:02:37;;;;;;;3.97;0.80;;;;;;;9.60;76.66;98416.28;5031608;28;20127;-77
2023/11/11 09:05:05;;;;;;;3.85;1.10;;;;;;;9.59;76.18;98419.88;5033059;28;20049;-74
2023/11/11 09:07:34;;;;;;;3.28;1.00;;;;;;;9.58;76.39;98421.69;5032670;28;20050;-73
2023/11/11 09:10:02;;;;;;;3.35;1.10;;;;;;;9.57;76.08;98429.69;5032702;28;20050;-74
2023/11/11 09:12:30;;;;;;;2.63;1.00;;;;;;;9.56;76.18;98427.97;5032722;28;20080;-76
2023/11/11 09:14:56;;;;;;;4.03;1.10;;;;;;;9.54;76.28;98420.25;5032688;28;20057;-75
2023/11/11 09:17:24;;;;;;;7.07;1.20;;;;;;;9.55;76.43;98418.44;5032050;28;20053;-74
2023/11/11 09:19:51;;;;;;;4.18;0.98;;;;;;;9.54;76.78;98414.97;5032888;28;20056;-74
2023/11/11 09:22:18;;;;;;;3.00;1.10;;;;;;;9.56;76.98;98425.34;5032473;28;20053;-75
2023/11/11 09:24:44;;;;;;;3.53;1.27;;;;;;;9.57;77.08;98417.34;5032775;28;20483;-77
2023/11/11 09:27:11;;;;;;;5.18;1.60;;;;;;;9.60;77.02;98421.53;5032137;28;20605;-73
2023/11/11 09:29:41;;;;;;;3.58;1.20;;;;;;;9.62;77.29;98423.13;5032370;28;20060;-73
2023/11/11 09:32:10;;;;;;;2.15;1.13;;;;;;;9.66;77.50;98439.50;5032485;28;20049;-73
2023/11/11 09:34:36;;;;;;;3.72;1.02;;;;;;;9.70;77.55;98438.31;5032682;28;20057;-74
2023/11/11 09:37:03;;;;;;;3.17;1.10;;;;;;;9.75;77.71;98433.53;5031908;28;20053;-75
2023/11/11 09:39:30;;;;;;;4.10;0.98;;;;;;;9.82;77.40;98441.81;5032366;28;20049;-74
2023/11/11 09:41:57;;;;;;;2.70;1.25;;;;;;;9.87;77.15;98439.66;5032123;28;20059;-74
2023/11/11 09:44:24;;;;;;;2.97;0.82;;;;;;;9.91;76.66;98448.16;5032252;28;20049;-76
2023/11/11 09:46:55;;;;;;;2.47;0.88;;;;;;;9.92;76.03;98441.97;5032180;28;20077;-75
2023/11/11 09:49:23;;;;;;;2.75;1.00;;;;;;;9.93;76.16;98438.38;5032342;28;20046;-73
2023/11/11 09:51:51;;;;;;;2.25;0.95;;;;;;;9.94;76.04;98445.28;5032044;28;20046;-75
2023/11/11 09:54:19;;;;;;;5.00;1.17;;;;;;;9.94;75.98;98440.03;5032098;28;20046;-75
2023/11/11 09:56:47;;;;;;;1.48;0.95;;;;;;;9.94;75.47;98447.09;5031768;28;20410;-73
2023/11/11 09:59:18;;;;;;;3.83;0.93;;;;;;;9.90;75.51;98449.94;5030627;28;20543;-76
2023/11/11 10:01:45;;;;;;;3.70;0.95;;;;;;;9.90;75.36;98449.09;5030231;28;20429;-73
2023/11/11 10:04:12;;;;;;;3.00;1.00;;;;;;;9.88;75.47;98446.59;5032075;28;20064;-74
2023/11/11 10:06:39;;;;;;;2.45;0.75;;;;;;;9.85;75.39;98443.38;5031564;28;20094;-73
2023/11/11 10:09:08;;;;;;;3.33;0.90;;;;;;;9.83;75.26;98453.97;5030606;28;20056;-76
2023/11/11 10:11:35;;;;;;;1.55;0.80;;;;;;;9.81;75.43;98449.81;5031527;28;20091;-74
2023/11/11 10:14:02;;;;;;;1.50;0.95;;;;;;;9.79;75.54;98452.53;5031698;28;20492;-76
2023/11/11 10:16:29;;;;;;;3.92;0.93;;;;;;;9.76;75.64;98450.97;5031894;28;20057;-75
2023/11/11 10:18:58;;;;;;;1.25;0.80;;;;;;;9.75;75.79;98459.81;5031006;28;20096;-74
2023/11/11 10:21:26;;;;;;;4.65;1.02;;;;;;;9.75;75.81;98456.34;5030719;28;20053;-77
2023/11/11 10:23:57;;;;;;;4.18;1.08;;;;;;;9.74;75.94;98462.56;5031473;28;20552;-73
2023/11/11 10:26:23;;;;;;;3.05;1.08;;;;;;;9.74;75.85;98460.78;5031717;28;20133;-76
2023/11/11 10:28:51;;;;;;;3.10;1.08;;;;;;;9.73;75.80;98467.00;5031060;28;20103;-72
2023/11/11 10:31:19;;;;;;;2.50;0.90;;;;;;;9.71;75.40;98468.88;5030154;28;20045;-73
2023/11/11 10:33:49;;;;;;;1.88;0.95;;;;;;;9.71;75.64;98457.53;5031518;28;20551;-75
2023/11/11 10:36:17;;;;;;;2.05;0.93;;;;;;;9.69;75.72;98456.81;5031338;28;20139;-78
2023/11/11 10:38:44;;;;;;;4.63;1.10;;;;;;;9.67;75.46;98462.19;5031191;28;20389;-76
2023/11/11 10:41:13;;;;;;;3.38;1.42;;;;;;;9.65;75.68;98459.66;5031155;28;20049;-73
2023/11/11 10:43:42;;;;;;;2.78;1.58;;;;;;;9.64;75.50;98462.41;5031104;28;20049;-78
2023/11/11 10:46:08;;;;;;;2.90;1.30;;;;;;;9.62;75.90;98451.19;5031298;28;20085;-74
2023/11/11 10:48:37;;;;;;;2.70;1.10;;;;;;;9.61;75.95;98460.03;5031140;28;20049;-75
2023/11/11 10:51:07;;;;;;;1.88;1.00;;;;;;;9.61;76.20;98449.50;5030648;28;20087;-80
2023/11/11 10:53:36;;;;;;;2.63;1.38;;;;;;;9.60;75.92;98455.69;5029868;28;20045;-75
2023/11/11 10:56:04;;;;;;;3.13;1.10;;;;;;;9.61;76.22;98455.59;5029771;28;20445;-73
2023/11/11 10:58:33;;;;;;;2.70;1.15;;;;;;;9.61;76.00;98455.59;5030785;28;20053;-76
2023/11/11 11:01:01;;;;;;;2.58;1.27;;;;;;;9.61;76.20;98444.25;5030301;28;20057;-76
2023/11/11 11:03:29;;;;;;;3.55;1.20;;;;;;;9.62;76.21;98462.53;5030894;28;20084;-78
2023/11/11 11:06:11;;;;;;;4.20;1.40;;;;;;;9.58;75.11;98452.38;5029673;28;20391;-75
2023/11/11 11:09:21;;;;;;;2.70;1.50;;;;;;;9.56;75.22;98470.00;5030971;28;20045;-73
2023/11/11 11:12:06;;;;;;;3.40;1.60;;;;;;;9.57;75.30;98469.09;5004132;28;20054;-80
2023/11/11 11:14:49;;;;;;;2.40;1.08;;;;;;;9.57;75.41;98463.81;5025282;28;20532;-75
2023/11/11 11:17:41;;;;;;;3.38;1.80;;;;;;;9.60;76.41;98453.91;5030554;28;20510;-75
2023/11/11 11:20:20;;;;;;;3.97;1.30;;;;;;;9.61;76.49;98458.22;5030038;28;20060;-73
2023/11/11 11:22:47;;;;;;;2.17;1.40;;;;;;;9.62;76.76;98464.31;5010740;28;20053;-76
2023/11/11 11:25:37;;;;;;;2.33;1.20;;;;;;;9.60;76.08;98466.22;5019059;28;20045;-75
2023/11/11 11:28:16;;;;;;;3.80;1.70;;;;;;;9.64;76.47;98472.91;5030603;28;20049;-75
2023/11/11 11:31:02;;;;;;;3.15;1.48;;;;;;;9.68;76.83;98471.72;5029071;28;20085;-79
2023/11/11 11:33:31;;;;;;;3.50;1.65;;;;;;;9.69;76.89;98475.22;5032923;28;20522;-74
2023/11/11 11:36:06;;;;;;;3.25;1.17;;;;;;;9.69;76.43;98473.44;5034377;28;20050;-75
2023/11/11 11:38:37;;;;;;;4.97;1.48;;;;;;;9.72;76.67;98478.44;5034473;28;20045;-77